sensor_id;sensor_type;location;lat;lon;timestamp;temperature;humidity
29777;DHT22;16677;52.224;7.484;2023-04-21T00:00:01;9.90;1.00
29777;DHT22;16677;52.224;7.484;2023-04-21T00:02:33;9.90;1.00
29777;DHT22;16677;52.224;7.484;2023-04-21T00:05:08;9.90;48.60
29777;DHT22;16677;52.224;7.484;2023-04-21T00:07:39;9.80;99.90
29777;DHT22;16677;52.224;7.484;2023-04-21T00:10:10;9.80;99.90
29777;DHT22;16677;52.224;7.484;2023-04-21T00:12:37;9.80;99.90
29777;DHT22;16677;52.224;7.484;2023-04-21T00:15:04;9.80;99.90
29777;DHT22;16677;52.224;7.484;2023-04-21T00:17:32;9.80;1.00
29777;DHT22;16677;52.224;7.484;2023-04-21T00:19:59;9.80;1.00
29777;DHT22;16677;52.224;7.484;2023-04-21T00:22:25;9.90;99.90
29777;DHT22;16677;52.224;7.484;2023-04-21T00:24:52;9.90;99.90
29777;DHT22;16677;52.224;7.484;2023-04-21T00:27:19;10.00;99.90
29777;DHT22;16677;52.224;7.484;2023-04-21T00:29:46;10.20;1.00
29777;DHT22;16677;52.224;7.484;2023-04-21T00:32:13;10.10;1.00
29777;DHT22;16677;52.224;7.484;2023-04-21T00:34:40;10.20;1.00
29777;DHT22;16677;52.224;7.484;2023-04-21T00:37:07;10.20;1.00
29777;DHT22;16677;52.224;7.484;2023-04-21T00:39:34;10.20;1.00
29777;DHT22;16677;52.224;7.484;2023-04-21T00:42:01;10.20;1.00
29777;DHT22;16677;52.224;7.484;2023-04-21T00:44:28;10.20;1.00
29777;DHT22;16677;52.224;7.484;2023-04-21T00:46:55;10.20;1.00
29777;DHT22;16677;52.224;7.484;2023-04-21T00:49:22;10.30;1.00
29777;DHT22;16677;52.224;7.484;2023-04-21T00:51:50;10.30;1.00
29777;DHT22;16677;52.224;7.484;2023-04-21T00:54:17;10.30;1.00
29777;DHT22;16677;52.224;7.484;2023-04-21T00:56:45;10.30;1.00
29777;DHT22;16677;52.224;7.484;2023-04-21T00:59:12;10.30;1.00
29777;DHT22;16677;52.224;7.484;2023-04-21T01:01:39;10.40;99.90
29777;DHT22;16677;52.224;7.484;2023-04-21T01:04:07;10.30;99.90
29777;DHT22;16677;52.224;7.484;2023-04-21T01:06:36;10.30;1.00
29777;DHT22;16677;52.224;7.484;2023-04-21T01:09:03;10.20;1.00
29777;DHT22;16677;52.224;7.484;2023-04-21T01:11:31;10.20;1.00
29777;DHT22;16677;52.224;7.484;2023-04-21T01:13:58;10.20;1.00
29777;DHT22;16677;52.224;7.484;2023-04-21T01:16:25;10.20;1.00
29777;DHT22;16677;52.224;7.484;2023-04-21T01:18:52;10.10;1.00
29777;DHT22;16677;52.224;7.484;2023-04-21T01:21:20;10.20;1.00
29777;DHT22;16677;52.224;7.484;2023-04-21T01:23:48;10.20;1.00
29777;DHT22;16677;52.224;7.484;2023-04-21T01:26:20;10.10;1.00
29777;DHT22;16677;52.224;7.484;2023-04-21T01:28:48;10.10;1.00
29777;DHT22;16677;52.224;7.484;2023-04-21T01:31:17;10.10;1.00
29777;DHT22;16677;52.224;7.484;2023-04-21T01:33:44;10.10;1.00
29777;DHT22;16677;52.224;7.484;2023-04-21T01:36:11;10.00;1.00
29777;DHT22;16677;52.224;7.484;2023-04-21T01:38:40;10.00;1.00
29777;DHT22;16677;52.224;7.484;2023-04-21T01:41:08;10.00;97.70
29777;DHT22;16677;52.224;7.484;2023-04-21T01:43:36;10.00;1.00
29777;DHT22;16677;52.224;7.484;2023-04-21T01:46:05;9.90;1.00
29777;DHT22;16677;52.224;7.484;2023-04-21T01:48:32;9.90;1.00
29777;DHT22;16677;52.224;7.484;2023-04-21T01:51:00;9.90;1.00
29777;DHT22;16677;52.224;7.484;2023-04-21T01:53:27;9.90;9.10
29777;DHT22;16677;52.224;7.484;2023-04-21T01:55:56;9.80;99.90
29777;DHT22;16677;52.224;7.484;2023-04-21T01:58:24;9.80;99.90
29777;DHT22;16677;52.224;7.484;2023-04-21T02:00:51;9.90;99.90
29777;DHT22;16677;52.224;7.484;2023-04-21T02:03:18;9.90;92.30
29777;DHT22;16677;52.224;7.484;2023-04-21T02:05:45;10.00;1.00
29777;DHT22;16677;52.224;7.484;2023-04-21T02:08:12;10.00;1.00
29777;DHT22;16677;52.224;7.484;2023-04-21T02:10:39;10.00;1.00
29777;DHT22;16677;52.224;7.484;2023-04-21T02:13:06;10.00;1.00
29777;DHT22;16677;52.224;7.484;2023-04-21T02:15:33;10.00;1.00
29777;DHT22;16677;52.224;7.484;2023-04-21T02:18:01;10.00;1.00
29777;DHT22;16677;52.224;7.484;2023-04-21T02:20:28;10.00;1.00
29777;DHT22;16677;52.224;7.484;2023-04-21T02:22:55;10.00;1.00
29777;DHT22;16677;52.224;7.484;2023-04-21T02:25:22;10.00;1.00
29777;DHT22;16677;52.224;7.484;2023-04-21T02:27:50;9.90;1.00
29777;DHT22;16677;52.224;7.484;2023-04-21T02:30:17;9.90;1.00
29777;DHT22;16677;52.224;7.484;2023-04-21T02:32:44;9.90;1.00
29777;DHT22;16677;52.224;7.484;2023-04-21T02:35:11;10.10;1.00
29777;DHT22;16677;52.224;7.484;2023-04-21T02:37:39;10.10;1.00
29777;DHT22;16677;52.224;7.484;2023-04-21T02:40:06;10.10;99.90
29777;DHT22;16677;52.224;7.484;2023-04-21T02:42:34;10.20;99.90
29777;DHT22;16677;52.224;7.484;2023-04-21T02:45:02;10.30;99.90
29777;DHT22;16677;52.224;7.484;2023-04-21T02:47:29;10.30;1.00
29777;DHT22;16677;52.224;7.484;2023-04-21T02:49:56;10.30;1.00
29777;DHT22;16677;52.224;7.484;2023-04-21T02:52:23;10.30;1.00
29777;DHT22;16677;52.224;7.484;2023-04-21T02:54:50;10.30;1.00
29777;DHT22;16677;52.224;7.484;2023-04-21T02:57:18;10.20;1.00
29777;DHT22;16677;52.224;7.484;2023-04-21T02:59:45;10.10;99.90
29777;DHT22;16677;52.224;7.484;2023-04-21T03:02:12;10.20;99.90
29777;DHT22;16677;52.224;7.484;2023-04-21T03:04:39;10.20;99.90
29777;DHT22;16677;52.224;7.484;2023-04-21T03:07:11;10.10;99.30
29777;DHT22;16677;52.224;7.484;2023-04-21T03:09:39;10.20;89.50
29777;DHT22;16677;52.224;7.484;2023-04-21T03:12:07;10.10;99.90
29777;DHT22;16677;52.224;7.484;2023-04-21T03:14:34;10.10;94.80
29777;DHT22;16677;52.224;7.484;2023-04-21T03:17:01;10.10;99.90
29777;DHT22;16677;52.224;7.484;2023-04-21T03:19:28;10.10;99.90
29777;DHT22;16677;52.224;7.484;2023-04-21T03:21:56;10.10;99.90
29777;DHT22;16677;52.224;7.484;2023-04-21T03:24:23;10.20;57.00
29777;DHT22;16677;52.224;7.484;2023-04-21T03:26:50;10.10;99.90
29777;DHT22;16677;52.224;7.484;2023-04-21T03:29:18;10.10;99.90
29777;DHT22;16677;52.224;7.484;2023-04-21T03:31:46;10.10;99.90
29777;DHT22;16677;52.224;7.484;2023-04-21T03:34:13;10.10;99.90
29777;DHT22;16677;52.224;7.484;2023-04-21T03:36:41;10.10;99.90
29777;DHT22;16677;52.224;7.484;2023-04-21T03:39:08;10.10;99.90
29777;DHT22;16677;52.224;7.484;2023-04-21T03:41:45;10.10;99.90
29777;DHT22;16677;52.224;7.484;2023-04-21T03:44:12;10.00;99.90
29777;DHT22;16677;52.224;7.484;2023-04-21T03:46:39;10.00;99.90
29777;DHT22;16677;52.224;7.484;2023-04-21T03:49:06;10.00;99.90
29777;DHT22;16677;52.224;7.484;2023-04-21T03:51:33;10.00;99.90
29777;DHT22;16677;52.224;7.484;2023-04-21T03:54:00;9.90;99.90
29777;DHT22;16677;52.224;7.484;2023-04-21T03:56:28;9.80;1.00
29777;DHT22;16677;52.224;7.484;2023-04-21T03:58:55;9.80;1.00
29777;DHT22;16677;52.224;7.484;2023-04-21T04:01:22;9.80;1.00
29777;DHT22;16677;52.224;7.484;2023-04-21T04:03:49;9.80;1.00
29777;DHT22;16677;52.224;7.484;2023-04-21T04:06:18;9.80;1.00
29777;DHT22;16677;52.224;7.484;2023-04-21T04:08:46;9.70;25.50
29777;DHT22;16677;52.224;7.484;2023-04-21T04:11:13;9.70;5.10
29777;DHT22;16677;52.224;7.484;2023-04-21T04:13:40;9.60;3.90
29777;DHT22;16677;52.224;7.484;2023-04-21T04:16:07;9.50;99.90
29777;DHT22;16677;52.224;7.484;2023-04-21T04:18:34;9.60;99.90
29777;DHT22;16677;52.224;7.484;2023-04-21T04:21:05;9.60;1.00
29777;DHT22;16677;52.224;7.484;2023-04-21T04:23:33;9.60;99.90
29777;DHT22;16677;52.224;7.484;2023-04-21T04:26:01;9.60;99.90
29777;DHT22;16677;52.224;7.484;2023-04-21T04:28:31;9.60;99.90
29777;DHT22;16677;52.224;7.484;2023-04-21T04:30:59;9.60;99.90
29777;DHT22;16677;52.224;7.484;2023-04-21T04:33:26;9.70;99.90
29777;DHT22;16677;52.224;7.484;2023-04-21T04:35:54;9.60;99.90
29777;DHT22;16677;52.224;7.484;2023-04-21T04:38:21;9.60;99.90
29777;DHT22;16677;52.224;7.484;2023-04-21T04:40:55;9.60;99.90
29777;DHT22;16677;52.224;7.484;2023-04-21T04:43:23;9.70;99.90
29777;DHT22;16677;52.224;7.484;2023-04-21T04:45:51;9.70;52.40
29777;DHT22;16677;52.224;7.484;2023-04-21T04:48:18;9.70;1.00
29777;DHT22;16677;52.224;7.484;2023-04-21T04:50:46;9.70;1.00
29777;DHT22;16677;52.224;7.484;2023-04-21T04:53:13;9.70;1.00
29777;DHT22;16677;52.224;7.484;2023-04-21T04:55:40;9.70;1.00
29777;DHT22;16677;52.224;7.484;2023-04-21T04:58:07;9.70;1.00
29777;DHT22;16677;52.224;7.484;2023-04-21T05:00:34;9.70;1.00
29777;DHT22;16677;52.224;7.484;2023-04-21T05:03:02;9.70;1.00
29777;DHT22;16677;52.224;7.484;2023-04-21T05:05:30;9.80;1.00
29777;DHT22;16677;52.224;7.484;2023-04-21T05:07:57;9.80;1.00
29777;DHT22;16677;52.224;7.484;2023-04-21T05:10:24;9.90;1.00
29777;DHT22;16677;52.224;7.484;2023-04-21T05:12:51;10.00;1.00
29777;DHT22;16677;52.224;7.484;2023-04-21T05:15:18;10.10;24.30
29777;DHT22;16677;52.224;7.484;2023-04-21T05:17:45;10.10;99.90
29777;DHT22;16677;52.224;7.484;2023-04-21T05:20:13;10.20;1.00
29777;DHT22;16677;52.224;7.484;2023-04-21T05:22:40;10.30;1.00
29777;DHT22;16677;52.224;7.484;2023-04-21T05:25:09;10.40;1.00
29777;DHT22;16677;52.224;7.484;2023-04-21T05:27:41;10.50;1.00
29777;DHT22;16677;52.224;7.484;2023-04-21T05:30:09;10.50;99.90
29777;DHT22;16677;52.224;7.484;2023-04-21T05:32:37;10.60;99.90
29777;DHT22;16677;52.224;7.484;2023-04-21T05:35:05;10.70;99.90
29777;DHT22;16677;52.224;7.484;2023-04-21T05:37:32;10.90;99.90
29777;DHT22;16677;52.224;7.484;2023-04-21T05:39:59;11.00;7.00
29777;DHT22;16677;52.224;7.484;2023-04-21T05:42:27;11.20;1.00
29777;DHT22;16677;52.224;7.484;2023-04-21T05:44:54;11.20;1.00
29777;DHT22;16677;52.224;7.484;2023-04-21T05:47:21;11.40;1.00
29777;DHT22;16677;52.224;7.484;2023-04-21T05:49:51;11.70;1.00
29777;DHT22;16677;52.224;7.484;2023-04-21T05:52:19;11.90;99.90
29777;DHT22;16677;52.224;7.484;2023-04-21T05:54:47;11.70;1.00
29777;DHT22;16677;52.224;7.484;2023-04-21T05:57:14;11.50;1.00
29777;DHT22;16677;52.224;7.484;2023-04-21T05:59:42;11.10;1.00
29777;DHT22;16677;52.224;7.484;2023-04-21T06:02:09;10.90;1.00
29777;DHT22;16677;52.224;7.484;2023-04-21T06:04:37;10.90;1.00
29777;DHT22;16677;52.224;7.484;2023-04-21T06:07:07;10.80;75.10
29777;DHT22;16677;52.224;7.484;2023-04-21T06:09:35;10.80;40.00
29777;DHT22;16677;52.224;7.484;2023-04-21T06:12:02;10.80;85.50
29777;DHT22;16677;52.224;7.484;2023-04-21T06:14:29;10.90;1.40
29777;DHT22;16677;52.224;7.484;2023-04-21T06:16:57;11.00;1.00
29777;DHT22;16677;52.224;7.484;2023-04-21T06:19:24;11.10;1.00
29777;DHT22;16677;52.224;7.484;2023-04-21T06:21:51;11.30;1.00
29777;DHT22;16677;52.224;7.484;2023-04-21T06:24:18;11.30;1.00
29777;DHT22;16677;52.224;7.484;2023-04-21T06:26:51;11.30;1.00
29777;DHT22;16677;52.224;7.484;2023-04-21T06:29:18;11.40;1.00
29777;DHT22;16677;52.224;7.484;2023-04-21T06:31:46;11.40;1.00
29777;DHT22;16677;52.224;7.484;2023-04-21T06:34:13;11.60;1.00
29777;DHT22;16677;52.224;7.484;2023-04-21T06:36:41;11.60;1.00
29777;DHT22;16677;52.224;7.484;2023-04-21T06:39:08;11.60;1.00
29777;DHT22;16677;52.224;7.484;2023-04-21T06:41:35;11.70;1.00
29777;DHT22;16677;52.224;7.484;2023-04-21T06:44:02;11.80;1.00
29777;DHT22;16677;52.224;7.484;2023-04-21T06:46:29;11.80;1.00
29777;DHT22;16677;52.224;7.484;2023-04-21T06:48:56;11.90;1.00
29777;DHT22;16677;52.224;7.484;2023-04-21T06:51:24;12.00;99.90
29777;DHT22;16677;52.224;7.484;2023-04-21T06:53:51;12.20;99.90
29777;DHT22;16677;52.224;7.484;2023-04-21T06:56:18;12.20;99.90
29777;DHT22;16677;52.224;7.484;2023-04-21T06:58:46;12.30;99.90
29777;DHT22;16677;52.224;7.484;2023-04-21T07:01:13;12.50;99.90
29777;DHT22;16677;52.224;7.484;2023-04-21T07:03:41;12.60;99.90
29777;DHT22;16677;52.224;7.484;2023-04-21T07:08:42;12.80;99.90
29777;DHT22;16677;52.224;7.484;2023-04-21T07:11:09;12.80;99.90
29777;DHT22;16677;52.224;7.484;2023-04-21T07:13:36;12.80;99.90
29777;DHT22;16677;52.224;7.484;2023-04-21T07:16:04;13.10;99.90
29777;DHT22;16677;52.224;7.484;2023-04-21T07:18:31;13.20;99.90
29777;DHT22;16677;52.224;7.484;2023-04-21T07:21:00;13.70;99.90
29777;DHT22;16677;52.224;7.484;2023-04-21T07:23:27;13.80;99.90
29777;DHT22;16677;52.224;7.484;2023-04-21T07:25:54;14.10;99.90
29777;DHT22;16677;52.224;7.484;2023-04-21T07:28:21;14.20;90.80
29777;DHT22;16677;52.224;7.484;2023-04-21T07:30:48;14.20;92.60
29777;DHT22;16677;52.224;7.484;2023-04-21T07:33:16;14.20;91.00
29777;DHT22;16677;52.224;7.484;2023-04-21T07:35:43;14.50;57.40
29777;DHT22;16677;52.224;7.484;2023-04-21T07:38:10;14.50;51.80
29777;DHT22;16677;52.224;7.484;2023-04-21T07:40:37;14.40;41.20
29777;DHT22;16677;52.224;7.484;2023-04-21T07:43:04;14.50;56.00
29777;DHT22;16677;52.224;7.484;2023-04-21T07:45:31;14.50;55.00
29777;DHT22;16677;52.224;7.484;2023-04-21T07:47:58;14.60;36.80
29777;DHT22;16677;52.224;7.484;2023-04-21T07:50:26;14.40;44.70
29777;DHT22;16677;52.224;7.484;2023-04-21T07:52:53;14.30;59.90
29777;DHT22;16677;52.224;7.484;2023-04-21T07:55:20;14.30;50.10
29777;DHT22;16677;52.224;7.484;2023-04-21T07:57:47;14.40;43.10
29777;DHT22;16677;52.224;7.484;2023-04-21T08:00:15;14.40;25.20
29777;DHT22;16677;52.224;7.484;2023-04-21T08:02:42;14.20;54.50
29777;DHT22;16677;52.224;7.484;2023-04-21T08:05:09;14.30;46.50
29777;DHT22;16677;52.224;7.484;2023-04-21T08:07:36;14.40;50.60
29777;DHT22;16677;52.224;7.484;2023-04-21T08:10:05;14.60;50.60
29777;DHT22;16677;52.224;7.484;2023-04-21T08:12:33;14.80;24.30
29777;DHT22;16677;52.224;7.484;2023-04-21T08:15:00;14.70;17.30
29777;DHT22;16677;52.224;7.484;2023-04-21T08:17:31;14.50;29.70
29777;DHT22;16677;52.224;7.484;2023-04-21T08:19:58;14.40;46.30
29777;DHT22;16677;52.224;7.484;2023-04-21T08:22:26;14.40;47.60
29777;DHT22;16677;52.224;7.484;2023-04-21T08:24:53;14.40;29.20
29777;DHT22;16677;52.224;7.484;2023-04-21T08:27:20;14.40;31.50
29777;DHT22;16677;52.224;7.484;2023-04-21T08:29:49;14.60;17.50
29777;DHT22;16677;52.224;7.484;2023-04-21T08:32:16;14.80;19.30
29777;DHT22;16677;52.224;7.484;2023-04-21T08:34:50;15.30;4.50
29777;DHT22;16677;52.224;7.484;2023-04-21T08:37:18;15.70;1.00
29777;DHT22;16677;52.224;7.484;2023-04-21T08:39:46;15.70;1.00
29777;DHT22;16677;52.224;7.484;2023-04-21T08:42:17;15.80;1.00
29777;DHT22;16677;52.224;7.484;2023-04-21T08:44:45;15.90;1.00
29777;DHT22;16677;52.224;7.484;2023-04-21T08:47:14;15.70;1.00
29777;DHT22;16677;52.224;7.484;2023-04-21T08:49:41;15.70;1.00
29777;DHT22;16677;52.224;7.484;2023-04-21T08:52:12;15.90;1.00
29777;DHT22;16677;52.224;7.484;2023-04-21T08:54:42;16.00;1.00
29777;DHT22;16677;52.224;7.484;2023-04-21T08:57:09;16.60;1.00
29777;DHT22;16677;52.224;7.484;2023-04-21T08:59:39;16.90;1.00
29777;DHT22;16677;52.224;7.484;2023-04-21T09:02:11;16.50;1.00
29777;DHT22;16677;52.224;7.484;2023-04-21T09:07:11;16.80;1.00
29777;DHT22;16677;52.224;7.484;2023-04-21T09:10:05;16.50;1.00
29777;DHT22;16677;52.224;7.484;2023-04-21T09:12:33;16.50;1.00
29777;DHT22;16677;52.224;7.484;2023-04-21T09:15:04;16.60;1.00
29777;DHT22;16677;52.224;7.484;2023-04-21T09:17:31;16.40;1.00
29777;DHT22;16677;52.224;7.484;2023-04-21T09:20:16;16.00;1.00
29777;DHT22;16677;52.224;7.484;2023-04-21T09:22:46;16.20;1.00
29777;DHT22;16677;52.224;7.484;2023-04-21T09:25:16;16.40;1.00
29777;DHT22;16677;52.224;7.484;2023-04-21T09:27:45;16.60;1.00
29777;DHT22;16677;52.224;7.484;2023-04-21T09:30:18;16.50;1.00
29777;DHT22;16677;52.224;7.484;2023-04-21T09:32:46;16.40;1.00
29777;DHT22;16677;52.224;7.484;2023-04-21T09:35:14;16.10;1.00
29777;DHT22;16677;52.224;7.484;2023-04-21T09:37:44;16.40;1.00
29777;DHT22;16677;52.224;7.484;2023-04-21T09:40:13;16.50;1.00
29777;DHT22;16677;52.224;7.484;2023-04-21T09:42:41;16.50;1.00
29777;DHT22;16677;52.224;7.484;2023-04-21T09:45:11;16.70;1.00
29777;DHT22;16677;52.224;7.484;2023-04-21T09:47:59;16.90;1.00
29777;DHT22;16677;52.224;7.484;2023-04-21T09:50:29;16.70;1.00
29777;DHT22;16677;52.224;7.484;2023-04-21T09:53:20;16.20;1.00
29777;DHT22;16677;52.224;7.484;2023-04-21T09:55:52;16.10;1.00
29777;DHT22;16677;52.224;7.484;2023-04-21T09:58:22;16.20;1.00
29777;DHT22;16677;52.224;7.484;2023-04-21T10:00:54;16.10;1.00
29777;DHT22;16677;52.224;7.484;2023-04-21T10:03:22;16.10;1.00
29777;DHT22;16677;52.224;7.484;2023-04-21T10:05:52;16.30;1.00
29777;DHT22;16677;52.224;7.484;2023-04-21T10:08:19;16.60;1.00
29777;DHT22;16677;52.224;7.484;2023-04-21T10:10:47;16.90;1.00
29777;DHT22;16677;52.224;7.484;2023-04-21T10:13:14;17.00;1.00
29777;DHT22;16677;52.224;7.484;2023-04-21T10:15:44;17.00;1.00
29777;DHT22;16677;52.224;7.484;2023-04-21T10:18:18;16.80;1.00
29777;DHT22;16677;52.224;7.484;2023-04-21T10:20:55;17.00;1.00
29777;DHT22;16677;52.224;7.484;2023-04-21T10:23:43;16.80;1.00
29777;DHT22;16677;52.224;7.484;2023-04-21T10:26:25;16.80;1.00
29777;DHT22;16677;52.224;7.484;2023-04-21T10:28:56;16.70;1.00
29777;DHT22;16677;52.224;7.484;2023-04-21T10:31:33;16.60;1.00
29777;DHT22;16677;52.224;7.484;2023-04-21T10:39:27;16.70;1.00
29777;DHT22;16677;52.224;7.484;2023-04-21T10:42:23;16.90;1.00
29777;DHT22;16677;52.224;7.484;2023-04-21T10:47:29;17.50;1.00
29777;DHT22;16677;52.224;7.484;2023-04-21T10:50:23;17.90;1.00
29777;DHT22;16677;52.224;7.484;2023-04-21T10:52:55;18.40;1.00
29777;DHT22;16677;52.224;7.484;2023-04-21T10:55:27;18.00;1.00
29777;DHT22;16677;52.224;7.484;2023-04-21T10:57:55;17.80;1.00
29777;DHT22;16677;52.224;7.484;2023-04-21T11:00:23;17.90;1.00
29777;DHT22;16677;52.224;7.484;2023-04-21T11:02:59;18.00;1.00
29777;DHT22;16677;52.224;7.484;2023-04-21T11:05:36;18.30;1.00
29777;DHT22;16677;52.224;7.484;2023-04-21T11:08:14;18.30;1.00
29777;DHT22;16677;52.224;7.484;2023-04-21T11:10:49;18.30;1.00
29777;DHT22;16677;52.224;7.484;2023-04-21T11:13:23;18.40;1.00
29777;DHT22;16677;52.224;7.484;2023-04-21T11:15:55;18.90;1.00
29777;DHT22;16677;52.224;7.484;2023-04-21T11:18:35;18.80;1.00
29777;DHT22;16677;52.224;7.484;2023-04-21T11:23:47;19.40;1.00
29777;DHT22;16677;52.224;7.484;2023-04-21T11:26:31;19.40;1.00
29777;DHT22;16677;52.224;7.484;2023-04-21T11:29:03;19.40;1.00
29777;DHT22;16677;52.224;7.484;2023-04-21T11:31:36;19.40;1.00
29777;DHT22;16677;52.224;7.484;2023-04-21T11:34:05;19.60;1.00
29777;DHT22;16677;52.224;7.484;2023-04-21T11:36:33;19.80;1.00
29777;DHT22;16677;52.224;7.484;2023-04-21T11:39:09;19.80;1.00
29777;DHT22;16677;52.224;7.484;2023-04-21T11:41:39;20.00;1.00
29777;DHT22;16677;52.224;7.484;2023-04-21T11:44:08;19.80;1.00
29777;DHT22;16677;52.224;7.484;2023-04-21T11:46:36;19.30;1.00
29777;DHT22;16677;52.224;7.484;2023-04-21T11:49:05;19.10;1.00
29777;DHT22;16677;52.224;7.484;2023-04-21T11:51:41;19.30;1.00
29777;DHT22;16677;52.224;7.484;2023-04-21T11:54:11;19.70;1.00
29777;DHT22;16677;52.224;7.484;2023-04-21T11:56:45;19.70;1.00
29777;DHT22;16677;52.224;7.484;2023-04-21T11:59:15;19.40;1.00
29777;DHT22;16677;52.224;7.484;2023-04-21T12:01:52;19.50;1.00
29777;DHT22;16677;52.224;7.484;2023-04-21T12:04:22;19.70;1.00
29777;DHT22;16677;52.224;7.484;2023-04-21T12:07:01;19.50;1.00
29777;DHT22;16677;52.224;7.484;2023-04-21T12:09:28;19.40;1.00
29777;DHT22;16677;52.224;7.484;2023-04-21T12:11:57;19.50;1.00
29777;DHT22;16677;52.224;7.484;2023-04-21T12:14:25;19.40;1.00
29777;DHT22;16677;52.224;7.484;2023-04-21T12:16:54;19.90;1.00
29777;DHT22;16677;52.224;7.484;2023-04-21T12:19:36;20.40;1.00
29777;DHT22;16677;52.224;7.484;2023-04-21T12:22:08;20.50;1.00
29777;DHT22;16677;52.224;7.484;2023-04-21T12:24:43;20.10;1.00
29777;DHT22;16677;52.224;7.484;2023-04-21T12:27:11;19.60;1.00
29777;DHT22;16677;52.224;7.484;2023-04-21T12:29:39;19.40;1.00
29777;DHT22;16677;52.224;7.484;2023-04-21T12:32:08;19.80;1.00
29777;DHT22;16677;52.224;7.484;2023-04-21T12:34:35;20.10;1.00
29777;DHT22;16677;52.224;7.484;2023-04-21T12:37:03;20.10;1.00
29777;DHT22;16677;52.224;7.484;2023-04-21T12:39:30;19.90;1.00
29777;DHT22;16677;52.224;7.484;2023-04-21T12:41:58;20.20;1.00
29777;DHT22;16677;52.224;7.484;2023-04-21T12:44:25;20.20;1.00
29777;DHT22;16677;52.224;7.484;2023-04-21T12:46:52;20.30;1.00
29777;DHT22;16677;52.224;7.484;2023-04-21T12:49:19;20.70;1.00
29777;DHT22;16677;52.224;7.484;2023-04-21T12:51:48;21.20;1.00
29777;DHT22;16677;52.224;7.484;2023-04-21T12:54:15;21.00;1.00
29777;DHT22;16677;52.224;7.484;2023-04-21T12:56:42;21.20;1.00
29777;DHT22;16677;52.224;7.484;2023-04-21T12:59:10;20.90;1.00
29777;DHT22;16677;52.224;7.484;2023-04-21T13:01:38;21.20;1.00
29777;DHT22;16677;52.224;7.484;2023-04-21T13:04:07;21.40;1.00
29777;DHT22;16677;52.224;7.484;2023-04-21T13:06:35;21.70;1.00
29777;DHT22;16677;52.224;7.484;2023-04-21T13:09:04;22.00;1.00
29777;DHT22;16677;52.224;7.484;2023-04-21T13:11:32;21.70;1.00
29777;DHT22;16677;52.224;7.484;2023-04-21T13:13:59;21.90;1.00
29777;DHT22;16677;52.224;7.484;2023-04-21T13:16:26;21.30;1.00
29777;DHT22;16677;52.224;7.484;2023-04-21T13:18:56;21.10;1.00
29777;DHT22;16677;52.224;7.484;2023-04-21T13:21:23;20.80;1.00
29777;DHT22;16677;52.224;7.484;2023-04-21T13:23:50;20.70;1.00
29777;DHT22;16677;52.224;7.484;2023-04-21T13:26:17;20.80;1.00
29777;DHT22;16677;52.224;7.484;2023-04-21T13:28:45;20.70;1.00
29777;DHT22;16677;52.224;7.484;2023-04-21T13:31:12;20.90;1.00
29777;DHT22;16677;52.224;7.484;2023-04-21T13:33:40;21.20;1.00
29777;DHT22;16677;52.224;7.484;2023-04-21T13:36:07;21.40;1.00
29777;DHT22;16677;52.224;7.484;2023-04-21T13:38:38;21.50;1.00
29777;DHT22;16677;52.224;7.484;2023-04-21T13:41:06;21.50;1.00
29777;DHT22;16677;52.224;7.484;2023-04-21T13:43:34;21.70;1.00
29777;DHT22;16677;52.224;7.484;2023-04-21T13:46:01;21.40;1.00
29777;DHT22;16677;52.224;7.484;2023-04-21T13:48:29;21.30;1.00
29777;DHT22;16677;52.224;7.484;2023-04-21T13:50:56;21.00;1.00
29777;DHT22;16677;52.224;7.484;2023-04-21T13:53:24;21.10;1.00
29777;DHT22;16677;52.224;7.484;2023-04-21T13:55:51;21.40;1.00
29777;DHT22;16677;52.224;7.484;2023-04-21T13:58:20;21.20;1.00
29777;DHT22;16677;52.224;7.484;2023-04-21T14:00:47;21.10;1.00
29777;DHT22;16677;52.224;7.484;2023-04-21T14:03:14;20.80;1.00
29777;DHT22;16677;52.224;7.484;2023-04-21T14:05:42;20.70;1.00
29777;DHT22;16677;52.224;7.484;2023-04-21T14:08:09;20.60;1.00
29777;DHT22;16677;52.224;7.484;2023-04-21T14:10:37;20.60;1.00
29777;DHT22;16677;52.224;7.484;2023-04-21T14:13:04;20.60;1.00
29777;DHT22;16677;52.224;7.484;2023-04-21T14:15:31;20.50;1.00
29777;DHT22;16677;52.224;7.484;2023-04-21T14:17:58;20.50;1.00
29777;DHT22;16677;52.224;7.484;2023-04-21T14:20:26;20.50;1.00
29777;DHT22;16677;52.224;7.484;2023-04-21T14:22:53;20.40;1.00
29777;DHT22;16677;52.224;7.484;2023-04-21T14:25:20;20.50;1.00
29777;DHT22;16677;52.224;7.484;2023-04-21T14:27:47;20.60;1.00
29777;DHT22;16677;52.224;7.484;2023-04-21T14:30:14;20.40;1.00
29777;DHT22;16677;52.224;7.484;2023-04-21T14:32:42;20.40;1.00
29777;DHT22;16677;52.224;7.484;2023-04-21T14:35:12;20.60;1.00
29777;DHT22;16677;52.224;7.484;2023-04-21T14:37:40;20.50;1.00
29777;DHT22;16677;52.224;7.484;2023-04-21T14:40:08;20.60;1.00
29777;DHT22;16677;52.224;7.484;2023-04-21T14:42:35;20.70;1.00
29777;DHT22;16677;52.224;7.484;2023-04-21T14:45:03;20.80;1.00
29777;DHT22;16677;52.224;7.484;2023-04-21T14:47:31;20.90;1.00
29777;DHT22;16677;52.224;7.484;2023-04-21T14:49:58;20.90;1.00
29777;DHT22;16677;52.224;7.484;2023-04-21T14:52:26;21.10;1.00
29777;DHT22;16677;52.224;7.484;2023-04-21T14:54:53;21.10;1.00
29777;DHT22;16677;52.224;7.484;2023-04-21T14:57:20;21.10;1.00
29777;DHT22;16677;52.224;7.484;2023-04-21T14:59:49;21.00;1.00
29777;DHT22;16677;52.224;7.484;2023-04-21T15:02:18;20.80;1.00
29777;DHT22;16677;52.224;7.484;2023-04-21T15:04:47;20.60;1.00
29777;DHT22;16677;52.224;7.484;2023-04-21T15:07:14;20.60;1.00
29777;DHT22;16677;52.224;7.484;2023-04-21T15:09:49;20.50;1.00
29777;DHT22;16677;52.224;7.484;2023-04-21T15:12:16;20.40;1.00
29777;DHT22;16677;52.224;7.484;2023-04-21T15:14:44;20.30;1.00
29777;DHT22;16677;52.224;7.484;2023-04-21T15:17:11;20.30;1.00
29777;DHT22;16677;52.224;7.484;2023-04-21T15:19:38;20.30;1.00
29777;DHT22;16677;52.224;7.484;2023-04-21T15:22:05;20.10;1.00
29777;DHT22;16677;52.224;7.484;2023-04-21T15:24:33;20.10;1.00
29777;DHT22;16677;52.224;7.484;2023-04-21T15:27:00;20.00;1.00
29777;DHT22;16677;52.224;7.484;2023-04-21T15:29:28;20.00;1.00
29777;DHT22;16677;52.224;7.484;2023-04-21T15:31:55;19.90;1.00
29777;DHT22;16677;52.224;7.484;2023-04-21T15:34:22;19.80;1.00
29777;DHT22;16677;52.224;7.484;2023-04-21T15:36:49;19.80;1.00
29777;DHT22;16677;52.224;7.484;2023-04-21T15:39:16;19.70;1.00
29777;DHT22;16677;52.224;7.484;2023-04-21T15:41:43;19.60;1.00
29777;DHT22;16677;52.224;7.484;2023-04-21T15:44:10;19.60;1.00
29777;DHT22;16677;52.224;7.484;2023-04-21T15:46:37;19.70;1.00
29777;DHT22;16677;52.224;7.484;2023-04-21T15:49:04;19.70;1.00
29777;DHT22;16677;52.224;7.484;2023-04-21T15:51:33;19.60;1.00
29777;DHT22;16677;52.224;7.484;2023-04-21T15:54:00;19.60;1.00
29777;DHT22;16677;52.224;7.484;2023-04-21T15:56:27;19.60;1.00
29777;DHT22;16677;52.224;7.484;2023-04-21T15:58:54;19.60;1.00
29777;DHT22;16677;52.224;7.484;2023-04-21T16:01:23;19.60;1.00
29777;DHT22;16677;52.224;7.484;2023-04-21T16:03:50;19.70;1.00
29777;DHT22;16677;52.224;7.484;2023-04-21T16:06:18;19.80;1.00
29777;DHT22;16677;52.224;7.484;2023-04-21T16:08:47;19.80;1.00